Time;durP1;ratioP1;P1;durP2;ratioP2;P2;SDS_P1;SDS_P2;PMS_P1;PMS_P2;Temp;Humidity;BMP_temperature;BMP_pressure;BME280_temperature;BME280_humidity;BME280_pressure;Samples;Min_cycle;Max_cycle;Signal;HPM_P1;HPM_P2
2021/01/16 00:25:02;;;;;;;20.20;4.03;;;26.60;76.90;;;;;;6358777;22;20330;-92
2021/01/16 00:27:34;;;;;;;13.50;3.78;;;26.60;78.00;;;;;;6329622;22;20013;-93
2021/01/16 00:33:00;;;;;;;10.73;4.68;;;26.60;79.40;;;;;;6349861;22;20002;-91
2021/01/16 00:36:04;;;;;;;14.32;4.55;;;26.50;79.00;;;;;;6334777;22;20009;-92
2021/01/16 00:38:51;;;;;;;7.97;4.55;;;26.50;80.20;;;;;;6201554;22;20060;-91
2021/01/16 00:42:02;;;;;;;10.70;4.25;;;26.50;80.10;;;;;;6200703;23;20004;-90
2021/01/16 00:44:42;;;;;;;9.10;3.40;;;26.50;81.30;;;;;;6139746;23;20073;-90
2021/01/16 00:47:08;;;;;;;10.57;4.15;;;26.40;81.10;;;;;;6123931;23;19997;-90
2021/01/16 00:49:45;;;;;;;7.05;4.13;;;26.40;80.10;;;;;;6149001;23;20002;-92
2021/01/16 00:55:01;;;;;;;8.23;3.20;;;26.30;80.20;;;;;;6169058;23;20033;-91
2021/01/16 00:57:28;;;;;;;5.10;3.03;;;26.20;80.80;;;;;;6145514;23;20075;-92
2021/01/16 01:00:20;;;;;;;5.85;3.20;;;26.20;80.80;;;;;;6142212;23;20029;-91
2021/01/16 01:02:52;;;;;;;6.85;3.10;;;26.20;81.00;;;;;;6145599;23;19998;-91
2021/01/16 01:05:30;;;;;;;6.88;3.10;;;26.20;80.50;;;;;;6170264;23;20091;-91
2021/01/16 01:08:09;;;;;;;7.80;3.30;;;26.10;81.70;;;;;;6175850;23;20045;-91
2021/01/16 01:10:37;;;;;;;6.88;2.92;;;26.10;80.80;;;;;;6167672;23;20197;-91
2021/01/16 01:13:29;;;;;;;5.15;2.75;;;26.10;81.10;;;;;;6198961;23;20000;-90
2021/01/16 01:15:59;;;;;;;5.50;3.05;;;26.00;82.10;;;;;;6279272;22;20031;-91
2021/01/16 01:18:53;;;;;;;4.68;3.25;;;26.00;82.30;;;;;;6290376;22;20000;-90
2021/01/16 01:21:54;;;;;;;4.40;3.28;;;26.00;81.60;;;;;;6238692;22;20007;-93
2021/01/16 01:24:27;;;;;;;5.57;3.00;;;26.00;81.20;;;;;;6201814;23;20005;-91
2021/01/16 01:27:07;;;;;;;6.90;3.35;;;25.90;81.30;;;;;;6175524;23;20005;-90
2021/01/16 01:29:44;;;;;;;6.82;3.30;;;25.90;82.20;;;;;;6225345;23;20000;-90
2021/01/16 01:32:22;;;;;;;9.43;3.10;;;25.90;81.30;;;;;;6204662;23;20008;-91
2021/01/16 01:35:28;;;;;;;5.85;3.50;;;25.80;81.70;;;;;;6208121;23;20055;-91
2021/01/16 01:49:27;;;;;;;4.90;2.70;;;26.20;80.20;;;;;;6286001;22;20084;-92
2021/01/16 01:51:55;;;;;;;7.07;4.13;;;26.20;79.80;;;;;;6235997;22;20004;-92
2021/01/16 01:58:23;;;;;;;8.32;3.38;;;26.20;79.50;;;;;;6217611;23;20051;-89
2021/01/16 02:01:44;;;;;;;6.70;2.90;;;26.20;80.40;;;;;;6209654;23;20015;-91
2021/01/16 02:05:29;;;;;;;;;;;;;;;;;;;;;
2021/01/16 02:08:33;;;;;;;8.73;2.85;;;26.30;80.40;;;;;;6001269;23;20013;-92
2021/01/16 02:15:21;;;;;;;4.40;3.38;;;26.20;79.80;;;;;;6089533;23;20010;-92
2021/01/16 02:18:24;;;;;;;14.75;7.00;;;26.20;79.80;;;;;;6054731;23;20349;-91
2021/01/16 02:22:06;;;;;;;10.27;6.38;;;26.20;80.40;;;;;;6117432;23;20014;-93
2021/01/16 02:28:34;;;;;;;6.57;3.20;;;26.10;80.40;;;;;;6140775;23;19905;-90
2021/01/16 02:34:35;;;;;;;4.07;2.63;;;26.00;80.40;;;;;;6279916;22;20033;-91
2021/01/16 02:38:00;;;;;;;;;;;;;;;;;;;;;
2021/01/16 02:47:42;;;;;;;4.88;2.67;;;25.90;80.90;;;;;;6327520;22;20030;-92
2021/01/16 02:51:00;;;;;;;;;;;;;;;;;;;;;
2021/01/16 02:53:36;;;;;;;3.90;2.65;;;25.80;80.70;;;;;;6217659;22;20000;-91
2021/01/16 02:56:28;;;;;;;4.50;2.70;;;25.80;81.30;;;;;;6273765;22;20029;-92
2021/01/16 02:59:17;;;;;;;5.03;2.55;;;25.70;81.50;;;;;;6298949;22;19995;-93
2021/01/16 03:07:34;;;;;;;5.88;3.28;;;25.70;81.60;;;;;;6329176;22;20007;-91
2021/01/16 03:10:24;;;;;;;4.22;3.17;;;25.60;81.00;;;;;;6262442;23;20000;-92
2021/01/16 03:13:35;;;;;;;;;;;;;;;;;;;;;
2021/01/16 03:16:14;;;;;;;4.18;2.60;;;25.60;81.00;;;;;;6075248;23;20007;-92
2021/01/16 03:18:45;;;;;;;4.75;2.65;;;25.70;81.20;;;;;;6085065;23;20072;-90
2021/01/16 03:21:35;;;;;;;3.45;2.70;;;25.60;81.10;;;;;;6085703;23;20007;-91
2021/01/16 03:24:05;;;;;;;3.03;2.17;;;25.60;80.90;;;;;;6151661;23;20246;-92
2021/01/16 03:26:40;;;;;;;3.33;2.45;;;25.60;81.00;;;;;;6147662;23;20013;-90
2021/01/16 03:29:07;;;;;;;4.50;2.55;;;25.60;81.60;;;;;;6144245;23;20065;-91
2021/01/16 03:31:36;;;;;;;4.30;2.65;;;25.60;81.00;;;;;;6145620;23;20002;-90
2021/01/16 03:34:07;;;;;;;4.28;2.35;;;25.60;81.30;;;;;;6092926;23;20006;-90
2021/01/16 03:36:36;;;;;;;3.88;2.80;;;25.60;81.40;;;;;;6144566;23;20097;-91
2021/01/16 03:40:05;;;;;;;6.82;2.60;;;25.60;82.00;;;;;;6142394;23;20132;-89
2021/01/16 03:42:35;;;;;;;2.95;1.77;;;25.60;81.00;;;;;;6039929;23;20006;-90
2021/01/16 03:45:29;;;;;;;5.57;2.30;;;25.70;81.70;;;;;;6209240;23;19988;-90
2021/01/16 03:48:23;;;;;;;2.95;1.95;;;25.70;81.60;;;;;;6219804;22;20000;-91
2021/01/16 03:50:53;;;;;;;2.97;2.40;;;25.70;81.40;;;;;;6272913;22;20011;-92
2021/01/16 03:53:20;;;;;;;4.30;2.20;;;25.70;81.40;;;;;;6301016;22;19995;-91
2021/01/16 03:55:53;;;;;;;4.03;2.08;;;25.80;81.10;;;;;;6324502;22;20232;-91
2021/01/16 03:58:20;;;;;;;4.72;2.60;;;25.70;81.70;;;;;;6304521;22;20059;-91
2021/01/16 04:00:49;;;;;;;4.40;2.20;;;25.70;81.20;;;;;;6324796;22;20049;-90
2021/01/16 04:03:16;;;;;;;3.50;2.15;;;25.70;81.20;;;;;;6298592;22;19994;-92
2021/01/16 04:05:44;;;;;;;3.95;2.50;;;25.80;81.40;;;;;;6298579;22;20066;-90
2021/01/16 04:08:15;;;;;;;4.03;2.00;;;25.80;81.00;;;;;;6302747;22;20022;-91
2021/01/16 04:10:41;;;;;;;4.53;2.25;;;25.80;81.20;;;;;;6298638;22;19999;-90
2021/01/16 04:13:09;;;;;;;3.65;2.25;;;25.80;81.00;;;;;;6298945;22;19995;-89
2021/01/16 04:15:36;;;;;;;3.38;2.20;;;25.80;81.00;;;;;;6328302;22;20010;-88
2021/01/16 04:18:07;;;;;;;5.85;2.35;;;25.80;80.70;;;;;;6300719;22;19995;-92
2021/01/16 04:20:36;;;;;;;3.67;2.35;;;25.70;80.70;;;;;;6328062;22;19999;-92
2021/01/16 04:23:03;;;;;;;4.20;2.20;;;25.70;80.60;;;;;;6299480;22;20003;-91
2021/01/16 04:25:30;;;;;;;4.00;2.30;;;25.70;80.60;;;;;;6329496;22;19987;-89
2021/01/16 04:27:56;;;;;;;3.35;2.13;;;25.70;80.50;;;;;;6330408;22;19999;-90
2021/01/16 04:30:25;;;;;;;2.70;1.55;;;25.60;80.70;;;;;;6327098;22;20048;-89
2021/01/16 04:33:00;;;;;;;4.90;2.38;;;25.60;81.10;;;;;;6308809;22;20022;-90
2021/01/16 04:35:46;;;;;;;3.03;2.25;;;25.60;80.90;;;;;;6245924;22;20011;-94
2021/01/16 04:38:13;;;;;;;2.50;1.83;;;25.50;81.20;;;;;;6300817;22;20007;-91
2021/01/16 04:40:42;;;;;;;2.97;2.10;;;25.50;81.10;;;;;;6300166;22;19991;-91
2021/01/16 04:43:11;;;;;;;5.53;2.20;;;25.40;81.30;;;;;;6297024;22;20062;-91
2021/01/16 04:45:45;;;;;;;4.55;2.42;;;25.40;81.00;;;;;;6300052;22;19995;-91
2021/01/16 04:48:14;;;;;;;3.40;2.08;;;25.40;80.70;;;;;;6296905;22;20010;-90
2021/01/16 04:50:50;;;;;;;5.25;2.50;;;25.40;81.30;;;;;;6300002;22;20022;-92
2021/01/16 04:53:19;;;;;;;3.67;2.47;;;25.30;80.40;;;;;;6275329;22;20003;-91
2021/01/16 04:55:48;;;;;;;3.05;2.15;;;25.30;80.40;;;;;;6297409;22;20011;-91
2021/01/16 04:58:15;;;;;;;4.00;2.15;;;25.30;79.90;;;;;;6300211;22;20034;-90
2021/01/16 05:00:43;;;;;;;3.05;2.00;;;25.30;79.60;;;;;;6273388;22;20046;-91
2021/01/16 05:03:13;;;;;;;4.90;2.10;;;25.20;79.50;;;;;;6297370;22;20011;-93
2021/01/16 05:05:45;;;;;;;3.13;1.80;;;25.20;79.60;;;;;;6274141;22;20080;-94
2021/01/16 05:08:20;;;;;;;3.03;2.00;;;25.20;79.20;;;;;;6224941;22;20007;-94
2021/01/16 05:10:54;;;;;;;3.17;1.90;;;25.10;78.90;;;;;;6299390;22;20003;-90
2021/01/16 05:13:30;;;;;;;3.55;2.15;;;25.10;79.30;;;;;;6299524;22;20003;-91
2021/01/16 05:16:00;;;;;;;5.00;2.08;;;25.00;79.10;;;;;;6298082;22;20025;-93
2021/01/16 05:18:28;;;;;;;3.10;1.90;;;25.00;79.50;;;;;;6300893;22;20051;-91
2021/01/16 05:20:55;;;;;;;3.90;2.22;;;24.90;79.50;;;;;;6322895;22;20015;-92
2021/01/16 05:23:21;;;;;;;4.88;2.15;;;24.90;78.90;;;;;;6324176;22;20041;-93
2021/01/16 05:25:53;;;;;;;3.03;2.00;;;24.80;79.40;;;;;;6296184;22;19995;-90
2021/01/16 05:28:24;;;;;;;4.70;1.90;;;24.80;79.30;;;;;;6324284;22;19999;-93
2021/01/16 05:31:09;;;;;;;2.90;2.10;;;24.90;79.10;;;;;;6296710;22;19995;-92
2021/01/16 05:33:39;;;;;;;3.25;2.00;;;24.90;78.30;;;;;;6323112;22;20001;-90
2021/01/16 05:36:10;;;;;;;3.33;2.00;;;24.90;78.60;;;;;;6296954;22;20015;-92
2021/01/16 05:38:39;;;;;;;2.08;1.80;;;24.90;78.40;;;;;;6297362;22;20187;-90
2021/01/16 05:41:11;;;;;;;2.10;1.75;;;24.80;78.00;;;;;;6300360;22;19998;-93
2021/01/16 05:43:39;;;;;;;;;;;24.80;78.00;;;;;;6296527;22;20041;-93
2021/01/16 05:46:10;;;;;;;5.15;1.80;;;24.80;78.60;;;;;;6299553;22;19895;-94
2021/01/16 05:48:38;;;;;;;3.08;2.10;;;24.70;77.80;;;;;;6327451;22;20011;-93
2021/01/16 05:51:06;;;;;;;2.92;2.15;;;24.70;77.90;;;;;;6298133;22;20027;-91
2021/01/16 05:53:32;;;;;;;2.55;1.58;;;24.70;77.40;;;;;;6322239;22;20033;-91
2021/01/16 05:56:06;;;;;;;4.10;1.90;;;24.60;77.80;;;;;;6313905;22;20053;-94
2021/01/16 05:58:37;;;;;;;3.50;2.28;;;24.60;78.50;;;;;;6322309;22;19999;-91
2021/01/16 06:01:23;;;;;;;4.18;2.08;;;24.60;78.50;;;;;;6338418;22;20029;-90
2021/01/16 06:03:55;;;;;;;4.68;2.55;;;24.60;78.70;;;;;;6335549;22;19995;-91
2021/01/16 06:06:23;;;;;;;3.03;1.88;;;24.50;78.40;;;;;;6327302;22;19994;-92
2021/01/16 06:09:01;;;;;;;3.83;1.98;;;24.50;78.70;;;;;;6333833;22;20014;-90
2021/01/16 06:11:45;;;;;;;2.72;2.10;;;24.50;78.30;;;;;;6297670;22;19996;-93
2021/01/16 06:14:14;;;;;;;3.97;2.00;;;24.40;78.00;;;;;;6325905;22;19995;-91
2021/01/16 06:16:55;;;;;;;4.22;2.28;;;24.50;78.50;;;;;;6318833;22;20002;-91
2021/01/16 06:19:26;;;;;;;3.25;1.80;;;24.50;78.20;;;;;;6325835;22;19996;-91
2021/01/16 06:21:54;;;;;;;2.90;2.20;;;24.50;77.60;;;;;;6308773;22;19999;-91
2021/01/16 06:24:24;;;;;;;3.50;2.17;;;24.50;77.40;;;;;;6324159;22;20037;-93
2021/01/16 06:27:00;;;;;;;4.13;1.90;;;24.40;77.50;;;;;;6307526;22;20017;-93
2021/01/16 06:29:37;;;;;;;5.90;2.22;;;24.50;76.90;;;;;;6321589;22;20191;-93
2021/01/16 06:32:05;;;;;;;3.95;1.90;;;24.50;77.40;;;;;;6311591;22;19992;-91
2021/01/16 06:34:34;;;;;;;7.80;2.25;;;24.50;76.50;;;;;;6320639;22;20283;-90
2021/01/16 06:37:18;;;;;;;2.67;1.92;;;24.50;76.50;;;;;;6335486;22;20046;-93
2021/01/16 06:39:50;;;;;;;3.35;1.92;;;24.50;76.80;;;;;;6321693;22;20037;-93
2021/01/16 06:42:24;;;;;;;3.03;1.90;;;24.60;75.60;;;;;;6322048;22;19994;-93
2021/01/16 06:45:10;;;;;;;2.65;1.73;;;24.50;75.40;;;;;;6306720;22;20031;-93
2021/01/16 06:47:38;;;;;;;2.63;1.80;;;24.50;75.10;;;;;;6319985;22;19998;-91
2021/01/16 06:50:09;;;;;;;4.93;2.03;;;24.50;75.50;;;;;;6310343;22;19994;-92
2021/01/16 06:52:43;;;;;;;2.92;1.42;;;24.50;74.90;;;;;;6324953;22;20026;-91
2021/01/16 06:55:18;;;;;;;3.67;1.98;;;24.50;75.10;;;;;;6323446;22;20006;-90
2021/01/16 06:57:45;;;;;;;4.63;1.80;;;24.50;74.70;;;;;;6319433;22;20022;-91
2021/01/16 07:00:14;;;;;;;4.78;1.90;;;24.50;75.10;;;;;;6323793;22;19998;-92
2021/01/16 07:02:46;;;;;;;2.38;1.63;;;24.50;74.60;;;;;;6321125;22;20348;-93
2021/01/16 07:05:22;;;;;;;3.13;1.83;;;24.50;75.10;;;;;;6323267;22;19998;-92
2021/01/16 07:07:53;;;;;;;3.35;1.75;;;24.40;75.20;;;;;;6344687;22;19992;-93
2021/01/16 07:10:23;;;;;;;3.22;1.55;;;24.40;75.00;;;;;;6311827;22;20302;-91
2021/01/16 07:12:52;;;;;;;1.88;1.58;;;24.30;74.80;;;;;;6318326;22;19995;-93
2021/01/16 07:15:21;;;;;;;4.50;1.83;;;24.30;74.80;;;;;;6321506;22;19991;-92
2021/01/16 07:17:49;;;;;;;2.92;1.67;;;24.20;75.00;;;;;;6318742;22;19996;-92
2021/01/16 07:20:16;;;;;;;1.95;1.50;;;24.30;74.90;;;;;;6338416;22;20140;-91
2021/01/16 07:22:44;;;;;;;2.88;1.80;;;24.20;75.30;;;;;;6319056;22;20240;-92
2021/01/16 07:25:15;;;;;;;2.75;1.75;;;24.20;75.30;;;;;;6336273;22;20027;-92
2021/01/16 07:27:43;;;;;;;3.88;1.40;;;24.20;75.30;;;;;;6317977;22;20179;-91
2021/01/16 07:30:12;;;;;;;2.70;1.70;;;24.10;75.00;;;;;;6313039;22;20338;-92
2021/01/16 07:32:46;;;;;;;2.53;1.60;;;24.10;75.00;;;;;;6318417;22;20018;-92
2021/01/16 07:35:21;;;;;;;2.00;1.42;;;24.10;74.90;;;;;;6310002;22;20048;-91
2021/01/16 07:37:50;;;;;;;2.13;1.70;;;24.20;74.10;;;;;;6318782;22;19997;-91
2021/01/16 07:40:21;;;;;;;2.60;1.60;;;24.20;74.20;;;;;;6319497;22;19987;-92
2021/01/16 07:42:54;;;;;;;2.28;1.65;;;24.20;73.60;;;;;;6318331;22;20047;-90
2021/01/16 07:45:23;;;;;;;3.42;1.80;;;24.20;74.00;;;;;;6312027;22;20062;-93
2021/01/16 07:47:53;;;;;;;1.48;1.30;;;24.20;74.50;;;;;;6320560;22;19987;-92
2021/01/16 07:50:29;;;;;;;2.08;1.50;;;24.20;74.30;;;;;;6311588;22;20014;-91
2021/01/16 07:53:09;;;;;;;3.42;1.60;;;24.20;73.50;;;;;;6319869;22;20018;-92
2021/01/16 07:55:36;;;;;;;2.28;1.55;;;24.20;73.70;;;;;;6319374;22;19999;-92
2021/01/16 07:58:30;;;;;;;2.33;1.42;;;24.20;74.30;;;;;;6308942;22;19999;-93
2021/01/16 08:01:24;;;;;;;1.98;1.60;;;24.20;74.00;;;;;;6318970;22;19988;-91
2021/01/16 08:04:23;;;;;;;1.80;1.40;;;24.30;74.00;;;;;;6318756;22;20015;-90
2021/01/16 08:07:06;;;;;;;2.20;1.50;;;24.20;74.00;;;;;;6320445;22;19999;-91
2021/01/16 08:09:54;;;;;;;3.00;1.45;;;24.20;73.40;;;;;;6317498;22;20003;-93
2021/01/16 08:12:23;;;;;;;4.03;1.75;;;24.20;73.60;;;;;;6311883;22;20062;-92
2021/01/16 08:14:50;;;;;;;2.38;1.70;;;24.20;73.90;;;;;;6318658;22;20010;-93
2021/01/16 08:17:20;;;;;;;3.05;1.48;;;24.20;73.70;;;;;;6318707;22;20014;-92
2021/01/16 08:20:01;;;;;;;3.72;1.73;;;24.10;73.50;;;;;;6319608;22;19999;-91
2021/01/16 08:22:51;;;;;;;2.15;1.50;;;24.20;73.20;;;;;;6315649;22;20050;-91
2021/01/16 08:25:31;;;;;;;3.63;1.60;;;24.10;73.60;;;;;;6313234;22;20022;-91
2021/01/16 08:28:00;;;;;;;2.92;1.45;;;24.10;72.00;;;;;;6320306;22;20006;-91
2021/01/16 08:30:34;;;;;;;1.88;1.50;;;24.20;71.60;;;;;;6319561;22;19999;-91
2021/01/16 08:33:05;;;;;;;2.22;1.73;;;24.10;71.80;;;;;;6309968;22;19999;-92
2021/01/16 08:35:38;;;;;;;1.85;1.50;;;24.20;71.60;;;;;;6320467;22;19991;-92
2021/01/16 08:38:17;;;;;;;2.00;1.58;;;24.20;71.60;;;;;;6310892;22;19999;-92
2021/01/16 08:41:03;;;;;;;2.58;1.63;;;24.10;71.20;;;;;;6322101;22;19991;-92
2021/01/16 08:43:44;;;;;;;2.80;1.50;;;24.10;72.00;;;;;;6317827;22;20001;-90
2021/01/16 08:46:18;;;;;;;2.00;1.52;;;24.10;72.90;;;;;;6313375;22;20059;-91
2021/01/16 08:49:00;;;;;;;3.00;1.85;;;24.10;72.80;;;;;;6323232;22;20010;-90
2021/01/16 08:51:40;;;;;;;3.50;1.50;;;24.00;71.80;;;;;;6316465;22;20011;-92
2021/01/16 08:54:07;;;;;;;1.55;1.42;;;24.00;71.10;;;;;;6312619;22;20007;-90
2021/01/16 08:56:34;;;;;;;3.33;1.63;;;24.00;71.30;;;;;;6323161;22;20014;-91
2021/01/16 08:59:20;;;;;;;2.35;1.65;;;24.00;72.00;;;;;;6310153;22;20063;-92
2021/01/16 09:01:53;;;;;;;2.50;1.67;;;24.00;72.70;;;;;;6321475;22;20251;-91
2021/01/16 09:04:24;;;;;;;2.10;1.50;;;24.00;72.50;;;;;;6313763;22;20007;-90
2021/01/16 09:06:52;;;;;;;2.15;1.27;;;24.00;72.80;;;;;;6320471;22;20060;-90
2021/01/16 09:09:27;;;;;;;3.67;1.90;;;23.90;73.40;;;;;;6320315;22;20287;-91
2021/01/16 09:12:12;;;;;;;2.65;1.70;;;23.90;73.40;;;;;;6322037;22;20042;-90
2021/01/16 09:14:41;;;;;;;2.97;1.58;;;23.90;74.20;;;;;;6316276;22;20010;-91
2021/01/16 09:17:34;;;;;;;4.40;1.83;;;23.80;73.50;;;;;;6319845;22;20056;-90
2021/01/16 09:20:00;;;;;;;2.88;1.75;;;23.80;74.40;;;;;;6302344;22;19999;-92
2021/01/16 09:22:31;;;;;;;2.67;1.67;;;23.70;74.80;;;;;;6320444;22;19991;-90
2021/01/16 09:25:21;;;;;;;1.65;1.30;;;23.70;74.90;;;;;;6338124;22;19992;-89
2021/01/16 09:27:48;;;;;;;1.98;1.35;;;23.60;75.20;;;;;;6325420;22;19995;-89
2021/01/16 09:30:27;;;;;;;3.40;1.60;;;23.60;74.50;;;;;;6341789;22;20018;-92
2021/01/16 09:32:54;;;;;;;2.47;1.40;;;23.60;73.90;;;;;;6325329;22;20006;-90
2021/01/16 09:35:38;;;;;;;2.80;1.80;;;23.60;74.00;;;;;;6316939;22;19995;-92
2021/01/16 09:38:27;;;;;;;2.03;1.50;;;23.60;72.70;;;;;;6322382;22;20058;-90
2021/01/16 09:40:53;;;;;;;3.80;1.40;;;23.60;72.50;;;;;;6307502;22;19991;-92
2021/01/16 09:43:24;;;;;;;1.90;1.48;;;23.60;73.30;;;;;;6321072;22;20211;-92
2021/01/16 09:45:59;;;;;;;2.28;1.50;;;23.50;73.40;;;;;;6308293;22;20027;-92
2021/01/16 09:48:52;;;;;;;1.83;1.23;;;23.50;74.00;;;;;;6341892;22;19999;-92
2021/01/16 09:51:20;;;;;;;4.07;1.50;;;23.50;74.50;;;;;;6320733;22;20015;-93
2021/01/16 09:53:47;;;;;;;2.08;1.70;;;23.50;74.10;;;;;;6294883;22;20035;-92
2021/01/16 09:56:52;;;;;;;3.80;1.50;;;23.50;73.40;;;;;;6316724;22;20027;-92
2021/01/16 09:59:23;;;;;;;2.90;1.40;;;23.50;72.70;;;;;;6319310;22;19995;-91
2021/01/16 10:02:15;;;;;;;2.58;1.50;;;23.50;72.60;;;;;;6320436;22;20002;-89
2021/01/16 10:04:44;;;;;;;2.43;1.57;;;23.50;72.40;;;;;;6322906;22;20011;-93
2021/01/16 10:07:16;;;;;;;4.10;1.80;;;23.50;71.70;;;;;;6339757;22;20045;-90
2021/01/16 10:09:43;;;;;;;3.75;1.70;;;23.50;71.20;;;;;;6319651;22;19995;-91
2021/01/16 10:12:36;;;;;;;3.67;1.27;;;23.50;71.90;;;;;;6320045;22;20006;-92
2021/01/16 10:15:08;;;;;;;2.85;1.70;;;23.50;72.30;;;;;;6162561;23;20024;-90
2021/01/16 10:17:40;;;;;;;3.13;1.55;;;23.50;72.50;;;;;;6312566;22;20315;-91
2021/01/16 10:20:09;;;;;;;2.78;1.85;;;23.50;72.70;;;;;;6321508;22;20172;-91
2021/01/16 10:22:36;;;;;;;2.85;1.70;;;23.40;73.40;;;;;;6341832;22;19999;-91
2021/01/16 10:25:11;;;;;;;4.65;2.13;;;23.40;74.00;;;;;;6307553;22;20005;-92
2021/01/16 10:27:45;;;;;;;2.10;1.73;;;23.40;74.50;;;;;;6324997;22;19995;-92
2021/01/16 10:30:50;;;;;;;2.13;1.55;;;23.30;75.00;;;;;;6309813;22;19995;-91
2021/01/16 10:33:20;;;;;;;5.93;2.40;;;23.40;75.20;;;;;;6317716;22;20040;-92
2021/01/16 10:35:51;;;;;;;3.20;1.65;;;23.40;75.60;;;;;;6319813;22;20062;-92
2021/01/16 10:38:42;;;;;;;2.83;1.83;;;23.40;74.60;;;;;;6310727;22;19995;-91
2021/01/16 10:41:15;;;;;;;3.78;1.85;;;23.40;74.20;;;;;;6320172;22;19987;-91
2021/01/16 10:43:42;;;;;;;3.78;1.48;;;23.40;73.60;;;;;;6317437;22;19996;-91
2021/01/16 10:46:30;;;;;;;4.78;1.77;;;23.50;73.10;;;;;;6309021;22;20044;-91
2021/01/16 10:49:15;;;;;;;2.83;1.70;;;23.50;73.20;;;;;;6318114;22;19999;-91
2021/01/16 10:52:05;;;;;;;3.72;1.85;;;23.50;73.40;;;;;;6318507;22;20215;-91
2021/01/16 10:54:34;;;;;;;4.75;2.22;;;23.50;73.60;;;;;;6340348;22;20010;-91
2021/01/16 10:57:01;;;;;;;6.28;2.53;;;23.50;74.20;;;;;;6307855;22;19995;-91
2021/01/16 10:59:32;;;;;;;4.32;2.33;;;23.50;74.80;;;;;;6320058;22;19991;-91
2021/01/16 11:02:10;;;;;;;5.82;2.58;;;23.50;74.70;;;;;;6332647;22;20176;-89
2021/01/16 11:05:08;;;;;;;2.55;1.90;;;23.50;74.60;;;;;;6317738;22;20048;-92
2021/01/16 11:07:41;;;;;;;3.08;1.85;;;23.50;74.60;;;;;;6340517;22;19995;-92
2021/01/16 11:10:09;;;;;;;4.20;1.90;;;23.40;74.80;;;;;;6309103;22;20001;-91
2021/01/16 11:12:37;;;;;;;5.05;1.83;;;23.40;75.00;;;;;;6321827;22;19991;-91
2021/01/16 11:15:25;;;;;;;2.72;1.83;;;23.40;74.90;;;;;;6309778;22;20006;-90
2021/01/16 11:18:01;;;;;;;5.78;1.92;;;23.40;73.90;;;;;;6243947;22;20082;-91
2021/01/16 11:20:30;;;;;;;3.00;1.85;;;23.40;73.20;;;;;;6319478;22;20275;-91
2021/01/16 11:23:21;;;;;;;4.55;1.70;;;23.50;71.60;;;;;;6305959;22;19999;-91
2021/01/16 11:25:48;;;;;;;3.58;1.60;;;23.50;70.40;;;;;;6317454;22;19992;-92
2021/01/16 11:28:28;;;;;;;3.22;1.60;;;23.60;69.20;;;;;;6310949;22;20006;-91
2021/01/16 11:31:06;;;;;;;1.98;1.42;;;23.60;68.40;;;;;;6320790;22;19990;-90
2021/01/16 11:33:34;;;;;;;2.00;1.40;;;23.70;66.80;;;;;;6316764;22;19995;-89
2021/01/16 11:36:18;;;;;;;3.92;1.70;;;23.70;66.60;;;;;;6309536;22;20169;-91
2021/01/16 11:39:16;;;;;;;;;;;;;;;;;;;;;
2021/01/16 11:42:22;;;;;;;6.53;1.80;;;23.80;66.60;;;;;;6320569;22;20252;-91
2021/01/16 11:45:02;;;;;;;3.42;1.70;;;23.80;66.90;;;;;;6321729;22;20093;-90
2021/01/16 11:47:30;;;;;;;2.63;1.67;;;23.90;67.80;;;;;;6321987;22;19991;-91
2021/01/16 11:49:59;;;;;;;4.35;2.00;;;23.90;67.60;;;;;;6306421;22;20007;-91
2021/01/16 11:52:26;;;;;;;1.98;1.75;;;24.00;67.90;;;;;;6318133;22;20011;-92
2021/01/16 11:54:53;;;;;;;3.17;2.00;;;24.10;68.00;;;;;;6319091;22;20009;-89
2021/01/16 11:57:24;;;;;;;14.80;10.80;;;24.20;67.80;;;;;;6318962;22;19991;-90
2021/01/16 11:59:51;;;;;;;3.65;2.60;;;24.30;67.40;;;;;;6330000;22;19999;-90
2021/01/16 12:02:21;;;;;;;3.75;1.80;;;24.40;65.90;;;;;;6318683;22;20028;-90
2021/01/16 12:04:47;;;;;;;3.45;1.50;;;24.50;65.30;;;;;;6316061;22;19999;-88
2021/01/16 12:07:19;;;;;;;4.30;1.65;;;24.70;65.00;;;;;;6308855;22;19995;-88
2021/01/16 12:09:48;;;;;;;3.47;2.10;;;24.80;64.20;;;;;;6318887;22;20970;-88
2021/01/16 12:12:16;;;;;;;3.45;1.48;;;24.90;63.10;;;;;;6318786;22;20048;-91
2021/01/16 12:14:43;;;;;;;3.47;1.67;;;25.00;63.40;;;;;;6316218;22;20345;-90
2021/01/16 12:17:12;;;;;;;2.70;1.42;;;25.10;63.80;;;;;;6309953;22;20192;-88
2021/01/16 12:19:40;;;;;;;1.80;1.42;;;25.20;62.80;;;;;;6320493;22;19988;-89
2021/01/16 12:22:11;;;;;;;3.10;1.33;;;25.40;62.00;;;;;;6309726;22;20107;-89
2021/01/16 12:24:38;;;;;;;2.38;1.40;;;25.40;62.20;;;;;;6320700;22;19983;-91
2021/01/16 12:27:07;;;;;;;4.40;1.70;;;25.60;60.50;;;;;;6310062;22;19999;-90
2021/01/16 12:29:46;;;;;;;4.55;1.20;;;25.80;61.00;;;;;;6319646;22;20232;-90
2021/01/16 12:32:15;;;;;;;3.47;1.98;;;25.80;60.40;;;;;;6312168;22;20014;-92
2021/01/16 12:34:54;;;;;;;3.20;1.70;;;25.80;60.70;;;;;;6320041;22;19995;-92
2021/01/16 12:37:40;;;;;;;4.00;1.20;;;25.80;59.50;;;;;;6312058;22;19999;-91
2021/01/16 12:40:14;;;;;;;3.00;1.45;;;25.90;59.30;;;;;;6318827;22;19995;-91
2021/01/16 12:42:41;;;;;;;6.28;1.30;;;26.00;58.50;;;;;;6318547;22;20101;-92
2021/01/16 12:45:28;;;;;;;1.90;1.40;;;26.20;59.30;;;;;;6320202;22;20015;-90
2021/01/16 12:48:00;;;;;;;2.38;1.40;;;26.30;58.80;;;;;;6306504;22;19999;-92
2021/01/16 12:50:27;;;;;;;5.63;1.50;;;26.50;58.80;;;;;;6319239;22;19995;-92
2021/01/16 12:52:55;;;;;;;1.50;1.30;;;26.60;59.40;;;;;;6306803;22;20014;-91
2021/01/16 12:55:24;;;;;;;6.20;1.80;;;26.80;59.10;;;;;;6319614;22;20003;-91
2021/01/16 12:57:52;;;;;;;5.95;1.75;;;27.00;57.80;;;;;;6319666;22;19991;-91
2021/01/16 13:00:24;;;;;;;3.20;1.80;;;27.20;58.90;;;;;;6320317;22;20026;-90
2021/01/16 13:03:00;;;;;;;4.55;2.58;;;27.40;60.70;;;;;;6320970;22;20183;-91
2021/01/16 13:05:30;;;;;;;4.28;2.65;;;27.30;62.10;;;;;;6322117;22;20001;-88
2021/01/16 13:08:01;;;;;;;6.30;3.03;;;27.30;60.80;;;;;;6326970;22;20070;-90
2021/01/16 13:10:35;;;;;;;3.92;2.33;;;27.40;61.40;;;;;;6294414;22;20004;-90
2021/01/16 13:13:10;;;;;;;4.85;2.53;;;27.50;61.20;;;;;;6325842;22;20025;-92
2021/01/16 13:15:41;;;;;;;5.50;2.67;;;27.60;63.10;;;;;;6322893;22;19987;-89
2021/01/16 13:18:32;;;;;;;3.45;2.55;;;27.80;62.30;;;;;;6325625;22;20003;-87
2021/01/16 13:21:01;;;;;;;3.38;2.20;;;28.10;62.40;;;;;;6340918;22;19999;-90
2021/01/16 13:23:49;;;;;;;5.03;2.95;;;28.40;61.30;;;;;;6324612;22;20006;-89
2021/01/16 13:26:22;;;;;;;4.03;2.58;;;28.60;61.70;;;;;;6325555;22;20057;-91
2021/01/16 13:28:53;;;;;;;5.07;2.65;;;28.90;61.60;;;;;;6327808;22;19999;-91
2021/01/16 13:31:23;;;;;;;9.65;2.42;;;29.00;62.00;;;;;;6325854;22;20074;-91
2021/01/16 13:34:21;;;;;;;4.60;2.45;;;29.00;61.30;;;;;;6326675;22;20042;-90
2021/01/16 13:36:50;;;;;;;8.20;1.85;;;29.30;61.80;;;;;;6323788;22;20003;-91
2021/01/16 13:41:54;;;;;;;4.80;1.58;;;28.90;59.60;;;;;;6296408;22;20026;-92
2021/01/16 13:44:29;;;;;;;2.83;1.70;;;28.50;59.00;;;;;;6269581;22;20348;-92
2021/01/16 13:46:56;;;;;;;4.28;2.35;;;28.20;60.70;;;;;;6267804;22;19999;-88
2021/01/16 13:49:28;;;;;;;5.00;2.15;;;27.80;63.30;;;;;;6297133;22;20014;-91
2021/01/16 13:52:09;;;;;;;4.25;2.67;;;27.40;63.60;;;;;;6298343;22;19984;-92
2021/01/16 13:54:37;;;;;;;3.00;2.05;;;27.50;64.60;;;;;;6246277;22;20026;-88
2021/01/16 13:57:05;;;;;;;7.13;2.30;;;27.60;63.10;;;;;;6298301;22;19992;-89
2021/01/16 13:59:41;;;;;;;10.13;2.70;;;28.10;63.20;;;;;;6272722;22;20007;-87
2021/01/16 14:02:31;;;;;;;3.13;2.05;;;28.70;62.40;;;;;;6270753;22;19996;-87
2021/01/16 14:04:58;;;;;;;4.28;2.20;;;28.80;61.50;;;;;;6274257;22;19999;-89
2021/01/16 14:07:28;;;;;;;5.40;2.53;;;29.10;61.70;;;;;;6269076;22;20294;-87
2021/01/16 14:10:47;;;;;;;8.15;2.92;;;29.30;60.80;;;;;;6257684;22;20315;-86
2021/01/16 14:13:20;;;;;;;4.95;2.70;;;29.60;60.90;;;;;;6260839;22;19999;-87
2021/01/16 14:16:14;;;;;;;4.68;2.25;;;30.20;60.50;;;;;;6294458;22;20019;-87
2021/01/16 14:18:45;;;;;;;4.22;3.03;;;29.90;60.90;;;;;;6265217;22;19996;-89
2021/01/16 14:21:17;;;;;;;4.15;2.97;;;29.90;62.00;;;;;;6268984;22;19999;-89
2021/01/16 14:23:52;;;;;;;13.80;3.05;;;29.90;63.60;;;;;;6268577;22;19991;-88
2021/01/16 14:26:23;;;;;;;15.88;4.20;;;30.00;64.10;;;;;;6267500;22;20102;-89
2021/01/16 14:28:55;;;;;;;7.43;3.25;;;30.40;64.20;;;;;;6293884;22;19999;-91
2021/01/16 14:31:25;;;;;;;5.18;2.65;;;30.50;64.50;;;;;;6268975;22;20056;-92
2021/01/16 14:33:59;;;;;;;10.45;3.13;;;30.60;64.30;;;;;;6253586;22;20256;-92
2021/01/16 14:36:33;;;;;;;6.97;3.05;;;30.60;64.80;;;;;;6269615;22;20020;-90
2021/01/16 14:39:02;;;;;;;3.85;2.90;;;30.70;65.70;;;;;;6290188;22;19991;-90
2021/01/16 14:41:44;;;;;;;3.25;2.50;;;31.00;65.10;;;;;;6290342;22;20015;-91
2021/01/16 14:44:40;;;;;;;5.90;3.55;;;31.20;64.50;;;;;;6258347;23;19992;-90
2021/01/16 14:47:06;;;;;;;4.80;2.97;;;31.20;64.90;;;;;;6262270;22;20000;-92
2021/01/16 14:49:45;;;;;;;5.70;2.58;;;30.90;65.60;;;;;;6264106;22;20000;-91
2021/01/16 14:52:19;;;;;;;3.47;2.40;;;31.00;65.10;;;;;;6294619;22;20075;-94